createdAt,value
2023-05-10T06:56:02.660Z,1201.00
2023-05-10T06:57:04.161Z,890.00
2023-05-10T06:58:12.739Z,893.00
2023-05-10T06:59:02.700Z,858.00
2023-05-10T07:00:02.649Z,796.00
2023-05-10T07:01:02.778Z,752.00
2023-05-10T07:02:02.686Z,746.00
2023-05-10T07:03:02.671Z,701.00
2023-05-10T07:04:02.621Z,683.00
2023-05-10T07:05:03.406Z,675.00
2023-05-10T07:06:02.618Z,665.00
2023-05-10T07:07:02.601Z,648.00
2023-05-10T07:08:02.601Z,632.00
2023-05-10T07:09:02.614Z,624.00
2023-05-10T07:10:02.592Z,618.00
2023-05-10T07:11:02.576Z,611.00
2023-05-10T07:12:02.663Z,614.00
2023-05-10T07:13:03.174Z,617.00
2023-05-10T07:14:02.562Z,619.00
2023-05-10T07:15:02.673Z,617.00
2023-05-10T07:16:02.604Z,613.00
2023-05-10T07:17:02.551Z,609.00
2023-05-10T07:18:02.658Z,613.00
2023-05-10T07:19:02.532Z,611.00
2023-05-10T07:20:02.539Z,607.00
2023-05-10T07:21:02.569Z,601.00
2023-05-10T07:22:02.499Z,597.00
2023-05-10T07:23:02.522Z,596.00
2023-05-10T07:24:02.592Z,605.00
2023-05-10T07:25:02.498Z,619.00
2023-05-10T07:26:02.484Z,614.00
2023-05-10T07:27:02.618Z,607.00
2023-05-10T07:28:02.901Z,619.00
2023-05-10T07:29:02.507Z,665.00
2023-05-10T07:30:02.552Z,653.00
2023-05-10T07:31:02.708Z,660.00
2023-05-10T07:32:03.657Z,664.00
2023-05-10T07:33:02.675Z,659.00
2023-05-10T07:34:02.622Z,653.00
2023-05-10T07:35:02.608Z,668.00
2023-05-10T07:36:02.657Z,729.00
2023-05-10T07:37:02.587Z,756.00
2023-05-10T07:38:02.646Z,794.00
2023-05-10T07:39:02.558Z,817.00
2023-05-10T07:40:02.609Z,833.00
2023-05-10T07:41:02.572Z,848.00
2023-05-10T07:42:02.575Z,839.00
2023-05-10T07:43:02.679Z,840.00
2023-05-10T07:44:02.560Z,870.00
2023-05-10T07:45:02.545Z,911.00
2023-05-10T07:46:02.663Z,923.00
2023-05-10T07:47:02.518Z,935.00
2023-05-10T07:48:04.127Z,935.00
2023-05-10T07:49:02.499Z,941.00
2023-05-10T07:50:02.622Z,948.00
2023-05-10T07:51:02.482Z,950.00
2023-05-10T07:52:02.482Z,956.00
2023-05-10T07:53:02.492Z,974.00
2023-05-10T07:54:03.524Z,986.00
2023-05-10T07:55:02.610Z,993.00
2023-05-10T07:56:02.547Z,997.00
2023-05-10T07:57:02.643Z,1005.00
2023-05-10T07:58:02.708Z,1017.00
2023-05-10T07:59:02.704Z,1027.00
2023-05-10T08:00:03.112Z,1032.00
2023-05-10T08:01:02.866Z,1036.00
2023-05-10T08:02:02.901Z,1039.00
2023-05-10T08:03:03.010Z,1044.00
2023-05-10T08:04:03.163Z,1047.00
2023-05-10T08:05:03.009Z,1050.00
2023-05-10T08:06:03.069Z,1057.00
2023-05-10T08:07:03.114Z,1065.00
2023-05-10T08:08:03.283Z,1076.00
2023-05-10T08:09:03.229Z,1084.00
2023-05-10T08:10:03.259Z,1090.00
2023-05-10T08:11:03.327Z,1092.00
2023-05-10T08:12:03.468Z,1107.00
2023-05-10T08:13:03.415Z,1106.00
2023-05-10T08:14:03.613Z,1075.00
2023-05-10T08:15:03.612Z,1130.00
2023-05-10T08:16:03.566Z,1222.00
2023-05-10T08:17:03.597Z,1129.00
2023-05-10T08:18:03.591Z,1165.00
2023-05-10T08:19:03.668Z,1261.00
2023-05-10T08:20:03.613Z,1268.00
2023-05-10T08:21:03.612Z,1263.00
2023-05-10T08:22:03.685Z,971.00
2023-05-10T08:23:03.735Z,826.00
2023-05-10T08:24:03.794Z,822.00
2023-05-10T08:25:04.115Z,860.00
2023-05-10T08:26:03.762Z,858.00
2023-05-10T08:27:03.787Z,828.00
2023-05-10T08:28:03.799Z,813.00
2023-05-10T08:29:03.788Z,867.00
2023-05-10T08:30:04.150Z,900.00
2023-05-10T08:31:03.812Z,911.00
2023-05-10T08:32:03.800Z,923.00
2023-05-10T08:33:03.897Z,936.00
2023-05-10T08:34:03.782Z,941.00
2023-05-10T08:35:04.142Z,1017.00
2023-05-10T08:36:03.816Z,1027.00
2023-05-10T08:37:03.856Z,1034.00
2023-05-10T08:38:03.923Z,1059.00
2023-05-10T08:39:04.038Z,1078.00
2023-05-10T08:40:04.172Z,1130.00
2023-05-10T08:41:05.646Z,1147.00
2023-05-10T08:42:04.130Z,1160.00
2023-05-10T08:43:04.196Z,1167.00
2023-05-10T08:44:04.267Z,1156.00
2023-05-10T08:45:04.652Z,1168.00
2023-05-10T08:46:04.300Z,1184.00
2023-05-10T08:47:04.465Z,1189.00
2023-05-10T08:48:04.437Z,1200.00
2023-05-10T08:49:04.388Z,1208.00
2023-05-10T08:50:04.431Z,1219.00
2023-05-10T08:51:04.456Z,1222.00
2023-05-10T08:52:04.498Z,1223.00
2023-05-10T08:53:04.619Z,1235.00
2023-05-10T08:54:04.618Z,1241.00
2023-05-10T08:55:04.746Z,1240.00
2023-05-10T08:56:04.625Z,1236.00
2023-05-10T08:57:04.632Z,1164.00
2023-05-10T08:58:04.702Z,954.00
2023-05-10T08:59:04.704Z,953.00
2023-05-10T09:00:04.755Z,945.00
2023-05-10T09:01:04.826Z,948.00
2023-05-10T09:02:04.816Z,822.00
2023-05-10T09:03:04.903Z,808.00
2023-05-10T09:04:04.928Z,743.00
2023-05-10T09:05:04.905Z,891.00
2023-05-10T09:06:04.825Z,837.00
2023-05-10T09:07:04.819Z,895.00
2023-05-10T09:08:04.771Z,781.00
2023-05-10T09:09:04.750Z,797.00
2023-05-10T09:10:05.651Z,797.00
2023-05-10T09:11:04.799Z,853.00
2023-05-10T09:12:04.781Z,773.00
2023-05-10T09:13:04.789Z,718.00
2023-05-10T09:14:04.826Z,698.00
2023-05-10T09:15:06.136Z,731.00
2023-05-10T09:16:17.471Z,810.00
2023-05-10T09:17:04.994Z,832.00
2023-05-10T09:18:04.873Z,815.00
2023-05-10T09:19:04.959Z,953.00
2023-05-10T09:20:04.854Z,962.00
2023-05-10T09:21:04.819Z,970.00
2023-05-10T09:22:04.878Z,992.00
2023-05-10T09:23:04.797Z,998.00
2023-05-10T09:24:04.816Z,1031.00
2023-05-10T09:25:05.166Z,1003.00
2023-05-10T09:26:05.169Z,998.00
2023-05-10T09:27:04.777Z,951.00
2023-05-10T09:28:04.787Z,958.00
2023-05-10T09:29:04.757Z,959.00
2023-05-10T09:30:04.842Z,977.00
2023-05-10T09:31:05.229Z,985.00
2023-05-10T09:32:04.763Z,988.00
2023-05-10T09:33:04.765Z,989.00
2023-05-10T09:34:04.826Z,988.00
2023-05-10T09:35:04.731Z,989.00
2023-05-10T09:36:05.146Z,991.00
2023-05-10T09:37:04.825Z,992.00
2023-05-10T09:38:04.786Z,991.00
2023-05-10T09:39:04.789Z,989.00
2023-05-10T09:40:04.815Z,984.00
2023-05-10T09:41:04.809Z,978.00
2023-05-10T09:42:04.879Z,976.00
2023-05-10T09:43:04.767Z,971.00
2023-05-10T09:44:04.777Z,968.00
2023-05-10T09:45:04.798Z,961.00
2023-05-10T09:46:05.243Z,946.00
2023-05-10T09:47:04.759Z,939.00
2023-05-10T09:48:04.832Z,930.00
2023-05-10T09:49:04.723Z,924.00
2023-05-10T09:50:04.810Z,923.00
2023-05-10T09:51:05.197Z,923.00
2023-05-10T09:52:04.760Z,923.00
2023-05-10T09:53:04.956Z,921.00
2023-05-10T09:54:04.837Z,918.00
2023-05-10T09:55:04.808Z,913.00
2023-05-10T09:56:05.162Z,902.00
2023-05-10T09:57:04.948Z,898.00
2023-05-10T09:58:05.058Z,894.00
2023-05-10T09:59:05.066Z,883.00
2023-05-10T10:00:05.040Z,878.00
2023-05-10T10:01:05.160Z,868.00
2023-05-10T10:02:05.187Z,859.00
2023-05-10T10:03:05.641Z,854.00
2023-05-10T10:04:05.231Z,853.00
2023-05-10T10:05:05.370Z,848.00
2023-05-10T10:06:06.804Z,846.00
2023-05-10T10:07:05.427Z,833.00
2023-05-10T10:08:05.351Z,816.00
2023-05-10T10:09:05.308Z,799.00
2023-05-10T10:10:05.366Z,780.00
2023-05-10T10:11:05.295Z,779.00
2023-05-10T10:12:05.323Z,768.00
2023-05-10T10:13:05.325Z,757.00
2023-05-10T10:14:06.224Z,752.00
2023-05-10T10:15:05.325Z,745.00
2023-05-10T10:16:05.901Z,745.00
2023-05-10T10:17:07.214Z,742.00
2023-05-10T10:18:05.410Z,736.00
2023-05-10T10:19:06.250Z,730.00
2023-05-10T10:20:05.263Z,731.00
2023-05-10T10:21:05.721Z,561.00
2023-05-10T10:22:05.464Z,543.00
2023-05-10T10:23:05.271Z,500.00
2023-05-10T10:24:05.228Z,477.00
2023-05-10T10:25:05.283Z,470.00
2023-05-10T10:26:08.185Z,472.00
2023-05-10T10:27:05.203Z,481.00
2023-05-10T10:28:05.198Z,538.00
2023-05-10T10:29:05.226Z,550.00
2023-05-10T10:30:05.191Z,556.00
2023-05-10T10:31:05.244Z,597.00
2023-05-10T10:32:05.243Z,610.00
2023-05-10T10:33:13.269Z,615.00
2023-05-10T10:34:05.190Z,621.00
2023-05-10T10:35:05.152Z,625.00
2023-05-10T10:36:05.219Z,634.00
2023-05-10T10:37:05.196Z,674.00
2023-05-10T10:38:05.151Z,654.00
2023-05-10T10:39:05.146Z,683.00
2023-05-10T10:40:05.154Z,688.00
2023-05-10T10:41:05.169Z,712.00
2023-05-10T10:42:05.749Z,717.00
2023-05-10T10:43:05.734Z,713.00
2023-05-10T10:44:05.219Z,706.00
2023-05-10T10:45:05.076Z,693.00
2023-05-10T10:46:05.115Z,697.00
2023-05-10T10:47:05.100Z,721.00
2023-05-10T10:48:05.062Z,715.00
2023-05-10T10:49:05.780Z,709.00
2023-05-10T10:50:05.089Z,709.00
2023-05-10T10:51:05.068Z,711.00
2023-05-10T10:52:05.057Z,740.00
2023-05-10T10:53:05.047Z,750.00
2023-05-10T10:54:05.044Z,733.00
2023-05-10T10:55:05.010Z,741.00
2023-05-10T10:56:05.120Z,731.00
2023-05-10T10:57:05.019Z,715.00
2023-05-10T10:58:05.009Z,706.00
2023-05-10T10:59:04.997Z,700.00
2023-05-10T11:00:04.984Z,698.00
2023-05-10T11:01:05.118Z,699.00
2023-05-10T11:02:05.250Z,695.00
2023-05-10T11:03:05.041Z,705.00
2023-05-10T11:04:05.045Z,725.00
2023-05-10T11:05:04.939Z,723.00
2023-05-10T11:06:05.097Z,727.00
2023-05-10T11:07:04.927Z,724.00
2023-05-10T11:08:04.934Z,728.00
2023-05-10T11:09:04.904Z,731.00
2023-05-10T11:10:05.693Z,722.00
2023-05-10T11:11:04.907Z,713.00
2023-05-10T11:12:04.912Z,724.00
2023-05-10T11:13:04.934Z,724.00
2023-05-10T11:14:04.912Z,705.00
2023-05-10T11:15:04.978Z,654.00
2023-05-10T11:16:05.216Z,567.00
2023-05-10T11:17:04.965Z,579.00
2023-05-10T11:18:04.924Z,578.00
2023-05-10T11:19:04.892Z,573.00
2023-05-10T11:20:04.859Z,570.00
2023-05-10T11:21:05.045Z,565.00
2023-05-10T11:22:04.953Z,557.00
2023-05-10T11:23:04.960Z,551.00
2023-05-10T11:24:04.985Z,548.00
2023-05-10T11:25:04.989Z,536.00
2023-05-10T11:26:04.963Z,528.00
2023-05-10T11:27:04.934Z,522.00
2023-05-10T11:28:05.038Z,519.00
2023-05-10T11:29:04.943Z,510.00
2023-05-10T11:30:05.095Z,502.00
2023-05-10T11:31:04.972Z,497.00
2023-05-10T11:32:04.932Z,489.00
2023-05-10T11:33:04.973Z,484.00
2023-05-10T11:34:04.920Z,481.00
2023-05-10T11:35:04.925Z,478.00
2023-05-10T11:36:04.957Z,471.00
2023-05-10T11:37:05.015Z,464.00
2023-05-10T11:38:05.027Z,461.00
2023-05-10T11:39:05.113Z,458.00
2023-05-10T11:40:05.704Z,455.00
2023-05-10T11:41:05.114Z,454.00
2023-05-10T11:42:05.115Z,451.00
2023-05-10T11:43:05.052Z,448.00
2023-05-10T11:44:05.068Z,445.00
2023-05-10T11:45:05.077Z,444.00
2023-05-10T11:46:05.127Z,446.00
2023-05-10T11:47:05.042Z,444.00
2023-05-10T11:48:05.720Z,445.00
2023-05-10T11:49:05.299Z,443.00
2023-05-10T11:50:05.135Z,443.00
2023-05-10T11:51:05.016Z,442.00
2023-05-10T11:52:05.010Z,442.00
2023-05-10T11:53:05.001Z,439.00
2023-05-10T11:54:05.059Z,438.00
2023-05-10T11:55:05.127Z,438.00
2023-05-10T11:56:05.227Z,436.00
2023-05-10T11:57:05.263Z,431.00
2023-05-10T11:58:05.284Z,430.00
2023-05-10T11:59:05.381Z,432.00
2023-05-10T12:00:05.391Z,433.00
2023-05-10T12:01:05.441Z,434.00
2023-05-10T12:02:05.442Z,435.00
2023-05-10T12:03:06.375Z,435.00
2023-05-10T12:04:05.715Z,434.00
2023-05-10T12:05:05.951Z,433.00
2023-05-10T12:06:05.717Z,436.00
2023-05-10T12:07:05.415Z,439.00
2023-05-10T12:08:05.434Z,442.00
2023-05-10T12:09:05.445Z,484.00
2023-05-10T12:10:05.450Z,463.00
2023-05-10T12:11:06.248Z,460.00
2023-05-10T12:12:05.523Z,462.00
2023-05-10T12:13:06.224Z,462.00
2023-05-10T12:14:05.659Z,465.00
2023-05-10T12:15:05.675Z,466.00
2023-05-10T12:16:05.796Z,469.00
2023-05-10T12:17:05.854Z,472.00
2023-05-10T12:18:06.819Z,471.00
2023-05-10T12:19:05.948Z,484.00
2023-05-10T12:20:06.711Z,496.00
2023-05-10T12:21:05.935Z,501.00
2023-05-10T12:22:05.823Z,512.00
2023-05-10T12:23:05.812Z,507.00
2023-05-10T12:24:05.805Z,507.00
2023-05-10T12:25:05.773Z,505.00
2023-05-10T12:26:05.786Z,507.00
2023-05-10T12:27:05.788Z,505.00
2023-05-10T12:28:05.805Z,501.00
2023-05-10T12:29:06.738Z,500.00
2023-05-10T12:30:05.887Z,495.00
2023-05-10T12:31:05.737Z,493.00
2023-05-10T12:32:05.741Z,492.00
2023-05-10T12:33:05.804Z,493.00
2023-05-10T12:34:05.714Z,492.00
2023-05-10T12:35:05.802Z,494.00
2023-05-10T12:36:05.745Z,494.00
2023-05-10T12:37:05.678Z,491.00
2023-05-10T12:38:05.685Z,489.00
2023-05-10T12:39:05.692Z,491.00
2023-05-10T12:40:05.695Z,488.00
2023-05-10T12:41:05.719Z,488.00
2023-05-10T12:42:05.738Z,488.00
2023-05-10T12:43:05.683Z,488.00
2023-05-10T12:44:05.695Z,486.00
2023-05-10T12:45:05.727Z,486.00
2023-05-10T12:46:06.819Z,487.00
2023-05-10T12:47:05.740Z,484.00
2023-05-10T12:48:05.794Z,482.00
2023-05-10T12:49:09.620Z,483.00
2023-05-10T12:50:05.720Z,481.00
2023-05-10T12:51:05.714Z,483.00
2023-05-10T12:52:05.716Z,482.00
2023-05-10T12:53:05.704Z,484.00
2023-05-10T12:54:05.703Z,485.00
2023-05-10T12:55:05.677Z,485.00
2023-05-10T12:56:05.785Z,487.00
2023-05-10T12:57:05.797Z,486.00
2023-05-10T12:58:05.663Z,482.00
2023-05-10T12:59:05.673Z,483.00
2023-05-10T13:00:06.259Z,483.00
2023-05-10T13:01:06.260Z,480.00
2023-05-10T13:02:05.646Z,480.00
2023-05-10T13:03:06.240Z,481.00
2023-05-10T13:04:05.747Z,479.00
2023-05-10T13:05:05.688Z,475.00
2023-05-10T13:06:05.593Z,475.00
2023-05-10T13:07:05.606Z,477.00
2023-05-10T13:08:05.586Z,478.00
2023-05-10T13:09:05.605Z,476.00
2023-05-10T13:10:05.590Z,475.00
2023-05-10T13:11:05.564Z,476.00
2023-05-10T13:12:05.723Z,476.00
2023-05-10T13:13:05.559Z,475.00
2023-05-10T13:14:05.575Z,472.00
2023-05-10T13:15:05.643Z,470.00
2023-05-10T13:16:05.546Z,470.00
2023-05-10T13:17:05.634Z,468.00
2023-05-10T13:18:05.628Z,469.00
2023-05-10T13:19:05.616Z,471.00
2023-05-10T13:20:05.567Z,472.00
2023-05-10T13:21:05.527Z,473.00
2023-05-10T13:22:05.728Z,473.00
2023-05-10T13:23:05.571Z,475.00
2023-05-10T13:24:05.469Z,474.00
2023-05-10T13:25:05.446Z,475.00
2023-05-10T13:26:05.686Z,477.00
2023-05-10T13:27:06.243Z,477.00
2023-05-10T13:28:05.442Z,477.00
2023-05-10T13:29:06.291Z,475.00
2023-05-10T13:30:05.477Z,474.00
2023-05-10T13:31:05.492Z,473.00
2023-05-10T13:32:05.517Z,471.00
2023-05-10T13:33:05.493Z,470.00
2023-05-10T13:34:05.402Z,469.00
2023-05-10T13:35:05.384Z,469.00
2023-05-10T13:36:05.402Z,471.00
2023-05-10T13:37:05.387Z,474.00
2023-05-10T13:38:05.386Z,474.00
2023-05-10T13:39:05.397Z,472.00
2023-05-10T13:40:05.335Z,470.00
2023-05-10T13:41:05.434Z,470.00
2023-05-10T13:42:05.349Z,469.00
2023-05-10T13:43:05.344Z,468.00
2023-05-10T13:44:05.511Z,464.00
2023-05-10T13:45:05.370Z,466.00
2023-05-10T13:46:05.338Z,467.00
2023-05-10T13:47:05.378Z,467.00
2023-05-10T13:48:05.380Z,469.00
2023-05-10T13:49:05.292Z,470.00
2023-05-10T13:50:05.802Z,469.00
2023-05-10T13:51:06.322Z,469.00
2023-05-10T13:52:07.272Z,469.00
2023-05-10T13:53:05.244Z,470.00
2023-05-10T13:54:05.266Z,473.00
2023-05-10T13:55:05.345Z,470.00
2023-05-10T13:56:05.273Z,470.00
2023-05-10T13:57:05.278Z,468.00
2023-05-10T13:58:05.283Z,469.00
2023-05-10T13:59:05.236Z,469.00
2023-05-10T14:00:05.411Z,469.00
2023-05-10T14:01:05.252Z,471.00
2023-05-10T14:02:05.371Z,472.00
2023-05-10T14:03:05.379Z,472.00
2023-05-10T14:04:05.352Z,473.00
2023-05-10T14:05:05.232Z,474.00
2023-05-10T14:06:05.197Z,476.00
2023-05-10T14:07:05.294Z,473.00
2023-05-10T14:08:05.201Z,470.00
2023-05-10T14:09:06.187Z,471.00
2023-05-10T14:10:05.844Z,470.00
2023-05-10T14:11:05.157Z,470.00
2023-05-10T14:12:05.190Z,468.00
2023-05-10T14:13:05.124Z,468.00
2023-05-10T14:14:05.191Z,469.00
2023-05-10T14:15:05.190Z,470.00
2023-05-10T14:16:05.178Z,472.00
2023-05-10T14:17:08.726Z,472.00
2023-05-10T14:18:05.223Z,469.00
2023-05-10T14:19:05.179Z,470.00
2023-05-10T14:20:05.121Z,471.00
2023-05-10T14:21:05.140Z,473.00
2023-05-10T14:22:05.150Z,473.00
2023-05-10T14:23:05.107Z,472.00
2023-05-10T14:24:05.093Z,471.00
2023-05-10T14:25:05.333Z,470.00
2023-05-10T14:26:05.083Z,468.00
2023-05-10T14:27:05.086Z,467.00
2023-05-10T14:28:05.140Z,464.00
2023-05-10T14:29:05.851Z,469.00
2023-05-10T14:30:05.073Z,471.00
2023-05-10T14:31:05.137Z,471.00
2023-05-10T14:32:05.084Z,470.00
2023-05-10T14:33:05.049Z,468.00
2023-05-10T14:34:05.046Z,467.00
2023-05-10T14:35:05.033Z,470.00
2023-05-10T14:36:05.101Z,470.00
2023-05-10T14:37:05.293Z,469.00
2023-05-10T14:38:05.011Z,467.00
2023-05-10T14:39:05.001Z,466.00
2023-05-10T14:40:05.071Z,465.00
2023-05-10T14:41:04.971Z,464.00
2023-05-10T14:42:04.994Z,465.00
2023-05-10T14:43:04.966Z,464.00
2023-05-10T14:44:04.955Z,462.00
2023-05-10T14:45:04.954Z,463.00
2023-05-10T14:46:04.989Z,462.00
2023-05-10T14:47:05.021Z,460.00
2023-05-10T14:48:07.843Z,462.00
2023-05-10T14:49:04.957Z,460.00
2023-05-10T14:50:04.919Z,462.00
2023-05-10T14:51:04.930Z,462.00
2023-05-10T14:52:04.909Z,461.00
2023-05-10T14:53:04.915Z,460.00
2023-05-10T14:54:04.915Z,459.00
2023-05-10T14:55:04.886Z,461.00
2023-05-10T14:56:04.865Z,463.00
2023-05-10T14:57:04.860Z,463.00
2023-05-10T14:58:04.852Z,462.00
2023-05-10T14:59:04.831Z,465.00
2023-05-10T15:00:04.828Z,465.00
2023-05-10T15:01:04.846Z,464.00
2023-05-10T15:02:04.855Z,463.00
2023-05-10T15:03:04.898Z,462.00
2023-05-10T15:04:04.806Z,462.00
2023-05-10T15:05:04.817Z,462.00
2023-05-10T15:06:04.810Z,463.00
2023-05-10T15:07:04.946Z,459.00
2023-05-10T15:08:04.788Z,458.00
2023-05-10T15:09:04.937Z,459.00
2023-05-10T15:10:04.878Z,459.00
2023-05-10T15:11:04.756Z,457.00
2023-05-10T15:12:04.831Z,459.00
2023-05-10T15:13:04.767Z,460.00
2023-05-10T15:14:04.755Z,459.00
2023-05-10T15:15:04.784Z,458.00
2023-05-10T15:16:04.780Z,456.00
2023-05-10T15:17:04.765Z,456.00
2023-05-10T15:18:04.755Z,455.00
2023-05-10T15:19:04.745Z,454.00
2023-05-10T15:20:04.765Z,452.00
2023-05-10T15:21:04.712Z,453.00
2023-05-10T15:22:04.722Z,453.00
2023-05-10T15:23:04.675Z,453.00
2023-05-10T15:24:04.669Z,453.00
2023-05-10T15:25:04.668Z,453.00
2023-05-10T15:26:04.671Z,453.00
2023-05-10T15:27:04.716Z,454.00
2023-05-10T15:28:04.624Z,453.00
2023-05-10T15:29:05.295Z,454.00
2023-05-10T15:30:05.326Z,454.00
2023-05-10T15:31:04.853Z,450.00
2023-05-10T15:32:04.922Z,449.00
2023-05-10T15:33:04.830Z,448.00
2023-05-10T15:34:04.764Z,446.00
2023-05-10T15:35:04.767Z,445.00
2023-05-10T15:36:04.804Z,444.00
2023-05-10T15:37:04.802Z,445.00
2023-05-10T15:38:04.848Z,448.00
2023-05-10T15:39:04.837Z,448.00
2023-05-10T15:40:05.153Z,448.00
2023-05-10T15:41:04.925Z,449.00
2023-05-10T15:42:04.868Z,447.00
2023-05-10T15:43:04.905Z,450.00
2023-05-10T15:44:04.802Z,449.00
2023-05-10T15:45:04.804Z,446.00
2023-05-10T15:46:04.798Z,444.00
2023-05-10T15:47:04.894Z,442.00
2023-05-10T15:48:04.873Z,442.00
2023-05-10T15:49:04.806Z,442.00
2023-05-10T15:50:04.784Z,444.00
2023-05-10T15:51:04.782Z,444.00
2023-05-10T15:52:04.755Z,443.00
2023-05-10T15:53:04.788Z,441.00
2023-05-10T15:54:07.718Z,444.00
2023-05-10T15:55:04.754Z,447.00
2023-05-10T15:56:04.805Z,448.00
2023-05-10T15:57:04.818Z,447.00
2023-05-10T15:58:04.818Z,447.00
2023-05-10T15:59:04.741Z,446.00
2023-05-10T16:00:04.744Z,446.00
2023-05-10T16:01:04.757Z,446.00
2023-05-10T16:02:04.766Z,443.00
2023-05-10T16:03:04.830Z,442.00
2023-05-10T16:04:04.738Z,445.00
2023-05-10T16:05:04.680Z,446.00
2023-05-10T16:06:05.384Z,447.00
2023-05-10T16:07:04.651Z,449.00
2023-05-10T16:08:04.663Z,447.00
2023-05-10T16:09:04.654Z,445.00
2023-05-10T16:10:04.856Z,444.00
2023-05-10T16:11:04.665Z,443.00
2023-05-10T16:12:04.638Z,440.00
2023-05-10T16:13:04.662Z,438.00
2023-05-10T16:14:07.039Z,438.00
2023-05-10T16:15:04.828Z,437.00
2023-05-10T16:16:04.873Z,438.00
2023-05-10T16:17:05.040Z,435.00
2023-05-10T16:18:04.905Z,436.00
2023-05-10T16:19:04.889Z,437.00
2023-05-10T16:20:04.936Z,438.00
2023-05-10T16:21:04.954Z,437.00
2023-05-10T16:22:04.845Z,435.00
2023-05-10T16:23:04.879Z,435.00
2023-05-10T16:24:05.837Z,436.00
2023-05-10T16:25:05.815Z,438.00
2023-05-10T16:26:04.845Z,439.00
2023-05-10T16:27:04.865Z,438.00
2023-05-10T16:28:04.867Z,439.00
2023-05-10T16:29:04.843Z,438.00
2023-05-10T16:30:05.414Z,436.00
2023-05-10T16:31:04.894Z,438.00
2023-05-10T16:32:04.793Z,437.00
2023-05-10T16:33:04.844Z,435.00
2023-05-10T16:34:04.778Z,434.00
2023-05-10T16:35:04.781Z,437.00
2023-05-10T16:36:04.817Z,438.00
2023-05-10T16:37:05.333Z,440.00
2023-05-10T16:38:04.830Z,441.00
2023-05-10T16:39:06.329Z,441.00
2023-05-10T16:40:04.746Z,442.00
2023-05-10T16:41:04.758Z,440.00
2023-05-10T16:42:04.726Z,442.00
2023-05-10T16:43:04.790Z,442.00
2023-05-10T16:44:04.742Z,444.00
2023-05-10T16:45:04.716Z,445.00
2023-05-10T16:46:04.941Z,445.00
2023-05-10T16:47:04.708Z,444.00
2023-05-10T16:48:04.787Z,445.00
2023-05-10T16:49:04.702Z,444.00
2023-05-10T16:50:04.663Z,445.00
2023-05-10T16:51:04.727Z,447.00
2023-05-10T16:52:04.652Z,447.00
2023-05-10T16:53:04.721Z,449.00
2023-05-10T16:54:04.658Z,449.00
2023-05-10T16:55:05.369Z,448.00
2023-05-10T16:56:04.661Z,445.00
2023-05-10T16:57:04.641Z,443.00
2023-05-10T16:58:04.659Z,441.00
2023-05-10T16:59:05.372Z,444.00
2023-05-10T17:00:04.669Z,443.00
2023-05-10T17:01:04.662Z,444.00
2023-05-10T17:02:04.716Z,444.00
2023-05-10T17:03:04.940Z,443.00
2023-05-10T17:04:04.630Z,444.00
2023-05-10T17:05:04.584Z,443.00
2023-05-10T17:06:04.568Z,443.00
2023-05-10T17:07:04.565Z,445.00
2023-05-10T17:08:04.624Z,447.00
2023-05-10T17:09:04.552Z,449.00
2023-05-10T17:10:04.538Z,451.00
2023-05-10T17:11:04.545Z,450.00
2023-05-10T17:12:04.521Z,450.00
2023-05-10T17:13:04.513Z,444.00
2023-05-10T17:14:04.503Z,443.00
2023-05-10T17:15:04.527Z,441.00
2023-05-10T17:16:04.840Z,440.00
2023-05-10T17:17:04.538Z,442.00
2023-05-10T17:18:04.500Z,441.00
2023-05-10T17:19:04.592Z,436.00
2023-05-10T17:20:04.463Z,436.00
2023-05-10T17:21:04.495Z,435.00
2023-05-10T17:22:04.462Z,435.00
2023-05-10T17:23:04.839Z,435.00
2023-05-10T17:24:04.447Z,435.00
2023-05-10T17:25:04.420Z,437.00
2023-05-10T17:26:04.446Z,439.00
2023-05-10T17:27:04.478Z,439.00
2023-05-10T17:28:04.863Z,440.00
2023-05-10T17:29:04.418Z,439.00
2023-05-10T17:30:04.561Z,441.00
2023-05-10T17:31:04.454Z,443.00
2023-05-10T17:32:04.432Z,445.00
2023-05-10T17:33:04.450Z,444.00
2023-05-10T17:34:05.843Z,444.00
2023-05-10T17:35:04.444Z,444.00
2023-05-10T17:36:04.464Z,442.00
2023-05-10T17:37:04.489Z,440.00
2023-05-10T17:38:04.543Z,441.00
2023-05-10T17:39:04.613Z,441.00
2023-05-10T17:40:04.617Z,442.00
2023-05-10T17:41:04.626Z,440.00
2023-05-10T17:42:04.665Z,438.00
2023-05-10T17:43:04.699Z,437.00
2023-05-10T17:44:04.728Z,437.00
2023-05-10T17:45:04.854Z,435.00
2023-05-10T17:46:04.855Z,437.00
2023-05-10T17:47:04.970Z,439.00
2023-05-10T17:48:05.001Z,440.00
2023-05-10T17:49:06.870Z,440.00
2023-05-10T17:50:05.043Z,441.00
2023-05-10T17:51:05.023Z,442.00
2023-05-10T17:52:05.070Z,443.00
2023-05-10T17:53:05.118Z,444.00
2023-05-10T17:54:05.170Z,443.00
2023-05-10T17:55:05.240Z,440.00
2023-05-10T17:56:05.252Z,442.00
2023-05-10T17:57:05.291Z,443.00
2023-05-10T17:58:05.334Z,444.00
2023-05-10T17:59:05.378Z,446.00
2023-05-10T18:00:05.434Z,446.00
2023-05-10T18:01:05.494Z,443.00
2023-05-10T18:02:05.478Z,443.00
2023-05-10T18:03:05.639Z,443.00
2023-05-10T18:04:05.567Z,445.00
2023-05-10T18:05:05.650Z,446.00
2023-05-10T18:06:05.637Z,447.00
2023-05-10T18:07:05.521Z,446.00
2023-05-10T18:08:05.860Z,447.00
2023-05-10T18:09:06.349Z,445.00
2023-05-10T18:10:05.500Z,445.00
2023-05-10T18:11:05.491Z,445.00
2023-05-10T18:12:05.496Z,445.00
2023-05-10T18:13:08.038Z,447.00
2023-05-10T18:14:05.477Z,450.00
2023-05-10T18:15:05.511Z,451.00
2023-05-10T18:16:05.461Z,449.00
2023-05-10T18:17:05.551Z,448.00
2023-05-10T18:18:05.470Z,449.00
2023-05-10T18:19:05.497Z,448.00
2023-05-10T18:20:05.446Z,446.00
2023-05-10T18:21:05.460Z,445.00
2023-05-10T18:22:05.821Z,446.00
2023-05-10T18:23:05.421Z,447.00
2023-05-10T18:24:10.386Z,445.00
2023-05-10T18:25:05.400Z,445.00
2023-05-10T18:26:06.361Z,447.00
2023-05-10T18:27:06.350Z,445.00
2023-05-10T18:28:06.377Z,448.00
2023-05-10T18:29:05.378Z,447.00
2023-05-10T18:30:05.412Z,445.00
2023-05-10T18:31:05.402Z,441.00
2023-05-10T18:32:05.400Z,439.00
2023-05-10T18:33:05.408Z,441.00
2023-05-10T18:34:05.356Z,440.00
2023-05-10T18:35:05.331Z,440.00
2023-05-10T18:36:05.881Z,441.00
2023-05-10T18:37:05.335Z,439.00
2023-05-10T18:38:05.338Z,435.00
2023-05-10T18:39:05.339Z,435.00
2023-05-10T18:40:05.297Z,438.00
2023-05-10T18:41:05.318Z,441.00
2023-05-10T18:42:05.301Z,442.00
2023-05-10T18:43:05.325Z,441.00
2023-05-10T18:44:05.321Z,441.00
2023-05-10T18:45:05.282Z,441.00
2023-05-10T18:46:05.290Z,438.00
2023-05-10T18:47:05.865Z,434.00
2023-05-10T18:48:05.337Z,432.00
2023-05-10T18:49:05.285Z,435.00
2023-05-10T18:50:06.903Z,434.00
2023-05-10T18:51:05.272Z,431.00
2023-05-10T18:52:05.260Z,430.00
2023-05-10T18:53:05.241Z,431.00
2023-05-10T18:54:05.253Z,432.00
2023-05-10T18:55:05.265Z,434.00
2023-05-10T18:56:05.209Z,435.00
2023-05-10T18:57:05.198Z,435.00
2023-05-10T18:58:05.252Z,435.00
2023-05-10T18:59:05.369Z,436.00
2023-05-10T19:00:05.170Z,433.00
2023-05-10T19:01:05.898Z,433.00
2023-05-10T19:02:05.159Z,431.00
2023-05-10T19:03:05.215Z,434.00
2023-05-10T19:04:05.423Z,435.00
2023-05-10T19:05:05.128Z,436.00
2023-05-10T19:06:05.157Z,436.00
2023-05-10T19:07:05.905Z,436.00
2023-05-10T19:08:05.118Z,437.00
2023-05-10T19:09:05.129Z,436.00
2023-05-10T19:10:05.162Z,434.00
2023-05-10T19:11:05.240Z,433.00
2023-05-10T19:12:05.223Z,432.00
2023-05-10T19:13:05.280Z,432.00
2023-05-10T19:14:05.378Z,432.00
2023-05-10T19:15:05.231Z,433.00
2023-05-10T19:16:05.371Z,435.00
2023-05-10T19:17:06.384Z,435.00
2023-05-10T19:18:05.201Z,437.00
2023-05-10T19:19:05.262Z,437.00
2023-05-10T19:20:05.235Z,439.00
2023-05-10T19:21:05.177Z,437.00
2023-05-10T19:22:05.166Z,435.00